Cylinder, Iowa
Current Conditions -  °F | °C
As of 8:35 PM on Thursday 20 Nov 2014 (Local Time) from KAXA Reporting Station
Clear Clear  
Wind Chill: -19°   Ceiling: Unl
Heat Index: -14°   Visibility: 10mi
Dew Point: -15°   Wind: 5mph
Humidity: 92%   Direction: 210°SSW
Pressure: 30.24"   Gusts: NA
Location:  43.09°N, 94.55°W
Report Text: KAXA 210235Z AUTO 21004KT 10SM CLR M14/M15 A3024 RMK AO2
Loading
Personal Weather Stations






























Interactive Weather Map New forecast layout! Learn more

10-Day Weather Forecast

Advertisements
Track Severe Weather on mobile